sensor_id;sensor_type;location;lat;lon;timestamp;temperature;humidity
45843;DHT22;31563;51.744;8.252;2023-06-05T00:00:28;26.30;37.10
45843;DHT22;31563;51.744;8.252;2023-06-05T00:02:56;26.10;45.40
45843;DHT22;31563;51.744;8.252;2023-06-05T00:05:24;26.50;44.40
45843;DHT22;31563;51.744;8.252;2023-06-05T00:07:54;26.20;37.10
45843;DHT22;31563;51.744;8.252;2023-06-05T00:10:22;26.40;44.00
45843;DHT22;31563;51.744;8.252;2023-06-05T00:12:50;26.10;43.50
45843;DHT22;31563;51.744;8.252;2023-06-05T00:15:21;26.20;37.10
45843;DHT22;31563;51.744;8.252;2023-06-05T00:17:49;25.90;42.30
45843;DHT22;31563;51.744;8.252;2023-06-05T00:20:18;26.10;37.10
45843;DHT22;31563;51.744;8.252;2023-06-05T00:22:46;26.10;37.10
45843;DHT22;31563;51.744;8.252;2023-06-05T00:25:15;26.10;37.10
45843;DHT22;31563;51.744;8.252;2023-06-05T00:27:43;26.00;41.50
45843;DHT22;31563;51.744;8.252;2023-06-05T00:30:12;26.10;37.20
45843;DHT22;31563;51.744;8.252;2023-06-05T00:32:42;26.00;37.00
45843;DHT22;31563;51.744;8.252;2023-06-05T00:35:10;26.00;42.40
45843;DHT22;31563;51.744;8.252;2023-06-05T00:37:39;26.00;41.20
45843;DHT22;31563;51.744;8.252;2023-06-05T00:40:07;26.00;37.10
45843;DHT22;31563;51.744;8.252;2023-06-05T00:42:35;26.00;37.10
45843;DHT22;31563;51.744;8.252;2023-06-05T00:45:04;25.90;37.10
45843;DHT22;31563;51.744;8.252;2023-06-05T00:47:33;25.90;37.10
45843;DHT22;31563;51.744;8.252;2023-06-05T00:50:04;25.90;37.10
45843;DHT22;31563;51.744;8.252;2023-06-05T00:52:34;25.90;37.10
45843;DHT22;31563;51.744;8.252;2023-06-05T00:55:03;25.80;37.10
45843;DHT22;31563;51.744;8.252;2023-06-05T00:57:31;25.80;37.10
45843;DHT22;31563;51.744;8.252;2023-06-05T01:00:01;25.80;37.10
45843;DHT22;31563;51.744;8.252;2023-06-05T01:02:33;25.80;37.10
45843;DHT22;31563;51.744;8.252;2023-06-05T01:05:06;25.80;37.10
45843;DHT22;31563;51.744;8.252;2023-06-05T01:07:35;25.80;37.10
45843;DHT22;31563;51.744;8.252;2023-06-05T01:10:06;25.70;37.10
45843;DHT22;31563;51.744;8.252;2023-06-05T01:12:41;25.70;37.10
45843;DHT22;31563;51.744;8.252;2023-06-05T01:15:10;25.60;37.00
45843;DHT22;31563;51.744;8.252;2023-06-05T01:17:39;25.60;37.10
45843;DHT22;31563;51.744;8.252;2023-06-05T01:20:10;25.60;37.10
45843;DHT22;31563;51.744;8.252;2023-06-05T01:22:38;25.60;37.10
45843;DHT22;31563;51.744;8.252;2023-06-05T01:25:08;25.50;37.10
45843;DHT22;31563;51.744;8.252;2023-06-05T01:27:43;25.50;37.10
45843;DHT22;31563;51.744;8.252;2023-06-05T01:30:21;25.50;37.20
45843;DHT22;31563;51.744;8.252;2023-06-05T01:32:55;25.50;37.20
45843;DHT22;31563;51.744;8.252;2023-06-05T01:35:23;25.40;37.10
45843;DHT22;31563;51.744;8.252;2023-06-05T01:37:57;25.40;37.10
45843;DHT22;31563;51.744;8.252;2023-06-05T01:40:28;25.40;37.10
45843;DHT22;31563;51.744;8.252;2023-06-05T01:42:59;25.30;37.20
45843;DHT22;31563;51.744;8.252;2023-06-05T01:45:27;25.30;37.10
45843;DHT22;31563;51.744;8.252;2023-06-05T01:47:55;25.30;37.20
45843;DHT22;31563;51.744;8.252;2023-06-05T01:50:24;25.30;37.20
45843;DHT22;31563;51.744;8.252;2023-06-05T01:52:52;25.20;37.10
45843;DHT22;31563;51.744;8.252;2023-06-05T01:55:22;25.20;37.10
45843;DHT22;31563;51.744;8.252;2023-06-05T01:57:52;25.20;37.20
45843;DHT22;31563;51.744;8.252;2023-06-05T02:00:21;25.20;37.20
45843;DHT22;31563;51.744;8.252;2023-06-05T02:02:49;25.10;37.10
45843;DHT22;31563;51.744;8.252;2023-06-05T02:05:18;25.10;37.20
45843;DHT22;31563;51.744;8.252;2023-06-05T02:07:49;25.10;37.20
45843;DHT22;31563;51.744;8.252;2023-06-05T02:10:21;25.10;37.30
45843;DHT22;31563;51.744;8.252;2023-06-05T02:12:52;25.10;37.30
45843;DHT22;31563;51.744;8.252;2023-06-05T02:15:20;25.10;37.30
45843;DHT22;31563;51.744;8.252;2023-06-05T02:17:49;25.00;37.30
45843;DHT22;31563;51.744;8.252;2023-06-05T02:20:23;25.00;37.30
45843;DHT22;31563;51.744;8.252;2023-06-05T02:22:52;25.00;37.30
45843;DHT22;31563;51.744;8.252;2023-06-05T02:25:21;24.90;37.30
45843;DHT22;31563;51.744;8.252;2023-06-05T02:27:55;24.90;37.30
45843;DHT22;31563;51.744;8.252;2023-06-05T02:30:23;24.90;37.40
45843;DHT22;31563;51.744;8.252;2023-06-05T02:32:52;24.90;37.40
45843;DHT22;31563;51.744;8.252;2023-06-05T02:35:24;24.80;37.40
45843;DHT22;31563;51.744;8.252;2023-06-05T02:37:52;24.80;37.30
45843;DHT22;31563;51.744;8.252;2023-06-05T02:40:20;24.70;37.30
45843;DHT22;31563;51.744;8.252;2023-06-05T02:42:48;24.70;37.40
45843;DHT22;31563;51.744;8.252;2023-06-05T02:45:18;24.70;37.40
45843;DHT22;31563;51.744;8.252;2023-06-05T02:47:47;24.70;37.40
45843;DHT22;31563;51.744;8.252;2023-06-05T02:50:16;24.70;37.40
45843;DHT22;31563;51.744;8.252;2023-06-05T02:52:44;24.60;37.30
45843;DHT22;31563;51.744;8.252;2023-06-05T02:55:12;24.60;37.30
45843;DHT22;31563;51.744;8.252;2023-06-05T02:57:40;24.60;37.40
45843;DHT22;31563;51.744;8.252;2023-06-05T03:00:10;24.60;37.40
45843;DHT22;31563;51.744;8.252;2023-06-05T03:02:44;24.60;37.40
45843;DHT22;31563;51.744;8.252;2023-06-05T03:05:16;24.60;37.50
45843;DHT22;31563;51.744;8.252;2023-06-05T03:07:52;24.50;37.50
45843;DHT22;31563;51.744;8.252;2023-06-05T03:10:21;24.50;37.50
45843;DHT22;31563;51.744;8.252;2023-06-05T03:12:49;24.50;37.50
45843;DHT22;31563;51.744;8.252;2023-06-05T03:15:17;24.50;37.50
45843;DHT22;31563;51.744;8.252;2023-06-05T03:17:47;24.40;37.50
45843;DHT22;31563;51.744;8.252;2023-06-05T03:20:17;24.50;37.50
45843;DHT22;31563;51.744;8.252;2023-06-05T03:22:46;24.40;37.50
45843;DHT22;31563;51.744;8.252;2023-06-05T03:25:14;24.40;37.50
45843;DHT22;31563;51.744;8.252;2023-06-05T03:27:42;24.40;37.60
45843;DHT22;31563;51.744;8.252;2023-06-05T03:30:12;24.40;37.60
45843;DHT22;31563;51.744;8.252;2023-06-05T03:32:43;24.40;37.50
45843;DHT22;31563;51.744;8.252;2023-06-05T03:35:13;24.30;37.50
45843;DHT22;31563;51.744;8.252;2023-06-05T03:37:41;24.40;37.60
45843;DHT22;31563;51.744;8.252;2023-06-05T03:40:11;24.30;37.60
45843;DHT22;31563;51.744;8.252;2023-06-05T03:42:39;24.30;37.60
45843;DHT22;31563;51.744;8.252;2023-06-05T03:45:08;24.30;37.60
45843;DHT22;31563;51.744;8.252;2023-06-05T03:47:36;24.30;37.60
45843;DHT22;31563;51.744;8.252;2023-06-05T03:50:05;24.30;37.60
45843;DHT22;31563;51.744;8.252;2023-06-05T03:52:35;24.30;37.60
45843;DHT22;31563;51.744;8.252;2023-06-05T03:55:05;24.20;37.50
45843;DHT22;31563;51.744;8.252;2023-06-05T03:57:35;24.30;37.60
45843;DHT22;31563;51.744;8.252;2023-06-05T04:00:04;24.30;37.70
45843;DHT22;31563;51.744;8.252;2023-06-05T04:02:36;24.20;37.70
45843;DHT22;31563;51.744;8.252;2023-06-05T04:05:05;24.20;37.90
45843;DHT22;31563;51.744;8.252;2023-06-05T04:07:39;24.20;38.40
45843;DHT22;31563;51.744;8.252;2023-06-05T04:10:09;24.10;38.20
45843;DHT22;31563;51.744;8.252;2023-06-05T04:12:37;24.10;38.40
45843;DHT22;31563;51.744;8.252;2023-06-05T04:15:07;24.00;38.60
45843;DHT22;31563;51.744;8.252;2023-06-05T04:17:37;24.10;38.70
45843;DHT22;31563;51.744;8.252;2023-06-05T04:20:09;24.00;38.80
45843;DHT22;31563;51.744;8.252;2023-06-05T04:22:42;24.00;39.00
45843;DHT22;31563;51.744;8.252;2023-06-05T04:25:11;24.00;39.30
45843;DHT22;31563;51.744;8.252;2023-06-05T04:27:40;24.00;39.30
45843;DHT22;31563;51.744;8.252;2023-06-05T04:30:10;23.90;39.40
45843;DHT22;31563;51.744;8.252;2023-06-05T04:32:39;24.00;39.60
45843;DHT22;31563;51.744;8.252;2023-06-05T04:35:09;24.00;39.60
45843;DHT22;31563;51.744;8.252;2023-06-05T04:37:38;24.00;40.00
45843;DHT22;31563;51.744;8.252;2023-06-05T04:40:08;24.00;40.00
45843;DHT22;31563;51.744;8.252;2023-06-05T04:42:36;24.00;40.10
45843;DHT22;31563;51.744;8.252;2023-06-05T04:45:06;24.00;40.10
45843;DHT22;31563;51.744;8.252;2023-06-05T04:47:34;24.00;40.30
45843;DHT22;31563;51.744;8.252;2023-06-05T04:50:04;24.00;40.50
45843;DHT22;31563;51.744;8.252;2023-06-05T04:52:34;24.10;40.50
45843;DHT22;31563;51.744;8.252;2023-06-05T04:55:03;24.00;40.60
45843;DHT22;31563;51.744;8.252;2023-06-05T04:57:33;24.00;40.70
45843;DHT22;31563;51.744;8.252;2023-06-05T05:00:01;24.10;40.90
45843;DHT22;31563;51.744;8.252;2023-06-05T05:02:34;24.10;41.00
45843;DHT22;31563;51.744;8.252;2023-06-05T05:05:03;24.10;40.90
45843;DHT22;31563;51.744;8.252;2023-06-05T05:07:32;24.10;41.10
45843;DHT22;31563;51.744;8.252;2023-06-05T05:10:02;24.10;41.10
45843;DHT22;31563;51.744;8.252;2023-06-05T05:12:30;24.10;41.00
45843;DHT22;31563;51.744;8.252;2023-06-05T05:15:00;24.10;41.20
45843;DHT22;31563;51.744;8.252;2023-06-05T05:17:29;24.20;41.20
45843;DHT22;31563;51.744;8.252;2023-06-05T05:19:57;24.20;41.30
45843;DHT22;31563;51.744;8.252;2023-06-05T05:22:26;24.20;41.20
45843;DHT22;31563;51.744;8.252;2023-06-05T05:24:54;24.20;41.20
45843;DHT22;31563;51.744;8.252;2023-06-05T05:27:22;24.30;41.30
45843;DHT22;31563;51.744;8.252;2023-06-05T05:29:51;24.20;41.20
45843;DHT22;31563;51.744;8.252;2023-06-05T05:32:20;24.20;41.20
45843;DHT22;31563;51.744;8.252;2023-06-05T05:34:49;24.30;41.30
45843;DHT22;31563;51.744;8.252;2023-06-05T05:37:18;24.30;41.30
45843;DHT22;31563;51.744;8.252;2023-06-05T05:39:46;24.30;41.30
45843;DHT22;31563;51.744;8.252;2023-06-05T05:42:14;24.30;41.20
45843;DHT22;31563;51.744;8.252;2023-06-05T05:44:43;24.30;41.10
45843;DHT22;31563;51.744;8.252;2023-06-05T05:47:11;24.30;41.10
45843;DHT22;31563;51.744;8.252;2023-06-05T05:49:40;24.40;41.80
45843;DHT22;31563;51.744;8.252;2023-06-05T05:52:09;24.20;41.30
45843;DHT22;31563;51.744;8.252;2023-06-05T05:54:37;24.20;41.40
45843;DHT22;31563;51.744;8.252;2023-06-05T05:57:05;24.20;41.50
45843;DHT22;31563;51.744;8.252;2023-06-05T05:59:34;24.00;42.70
45843;DHT22;31563;51.744;8.252;2023-06-05T06:02:02;24.20;41.50
45843;DHT22;31563;51.744;8.252;2023-06-05T06:04:36;24.20;41.40
45843;DHT22;31563;51.744;8.252;2023-06-05T06:07:06;24.20;41.30
45843;DHT22;31563;51.744;8.252;2023-06-05T06:09:35;24.20;43.20
45843;DHT22;31563;51.744;8.252;2023-06-05T06:12:03;24.40;41.20
45843;DHT22;31563;51.744;8.252;2023-06-05T06:14:33;24.40;41.10
45843;DHT22;31563;51.744;8.252;2023-06-05T06:17:01;24.40;41.60
45843;DHT22;31563;51.744;8.252;2023-06-05T06:19:32;24.50;44.40
45843;DHT22;31563;51.744;8.252;2023-06-05T06:22:01;24.60;40.80
45843;DHT22;31563;51.744;8.252;2023-06-05T06:24:30;24.70;40.60
45843;DHT22;31563;51.744;8.252;2023-06-05T06:26:58;24.80;40.50
45843;DHT22;31563;51.744;8.252;2023-06-05T06:31:58;25.00;39.60
45843;DHT22;31563;51.744;8.252;2023-06-05T06:34:26;25.10;40.00
45843;DHT22;31563;51.744;8.252;2023-06-05T06:36:54;25.20;39.80
45843;DHT22;31563;51.744;8.252;2023-06-05T06:39:22;25.30;39.60
45843;DHT22;31563;51.744;8.252;2023-06-05T06:41:52;25.40;39.60
45843;DHT22;31563;51.744;8.252;2023-06-05T06:44:20;25.70;45.00
45843;DHT22;31563;51.744;8.252;2023-06-05T06:46:48;26.20;45.80
45843;DHT22;31563;51.744;8.252;2023-06-05T06:49:17;26.10;48.50
45843;DHT22;31563;51.744;8.252;2023-06-05T06:51:45;26.00;48.90
45843;DHT22;31563;51.744;8.252;2023-06-05T06:54:13;26.00;39.60
45843;DHT22;31563;51.744;8.252;2023-06-05T06:56:41;26.70;55.30
45843;DHT22;31563;51.744;8.252;2023-06-05T06:59:14;26.20;54.40
45843;DHT22;31563;51.744;8.252;2023-06-05T07:01:44;26.70;50.60
45843;DHT22;31563;51.744;8.252;2023-06-05T07:04:14;27.10;51.20
45843;DHT22;31563;51.744;8.252;2023-06-05T07:06:43;26.90;38.70
45843;DHT22;31563;51.744;8.252;2023-06-05T07:09:11;27.10;47.90
45843;DHT22;31563;51.744;8.252;2023-06-05T07:11:39;27.60;53.60
45843;DHT22;31563;51.744;8.252;2023-06-05T07:14:08;27.40;54.20
45843;DHT22;31563;51.744;8.252;2023-06-05T07:16:37;27.90;56.00
45843;DHT22;31563;51.744;8.252;2023-06-05T07:19:05;27.90;46.30
45843;DHT22;31563;51.744;8.252;2023-06-05T07:21:34;27.80;37.50
45843;DHT22;31563;51.744;8.252;2023-06-05T07:24:05;27.30;54.90
45843;DHT22;31563;51.744;8.252;2023-06-05T07:26:34;28.00;57.20
45843;DHT22;31563;51.744;8.252;2023-06-05T07:29:03;27.90;57.70
45843;DHT22;31563;51.744;8.252;2023-06-05T07:31:31;27.70;59.10
45843;DHT22;31563;51.744;8.252;2023-06-05T07:34:00;28.10;36.60
45843;DHT22;31563;51.744;8.252;2023-06-05T07:36:28;28.90;54.00
45843;DHT22;31563;51.744;8.252;2023-06-05T07:38:57;29.40;63.20
45843;DHT22;31563;51.744;8.252;2023-06-05T07:41:25;30.20;66.90
45843;DHT22;31563;51.744;8.252;2023-06-05T07:43:53;29.90;70.20
45843;DHT22;31563;51.744;8.252;2023-06-05T07:58:45;30.00;68.80
45843;DHT22;31563;51.744;8.252;2023-06-05T08:33:37;31.60;61.90
45843;DHT22;31563;51.744;8.252;2023-06-05T08:43:38;32.00;52.90
45843;DHT22;31563;51.744;8.252;2023-06-05T08:48:40;32.60;46.80
45843;DHT22;31563;51.744;8.252;2023-06-05T08:51:10;32.40;49.70
45843;DHT22;31563;51.744;8.252;2023-06-05T08:53:41;33.50;48.40
45843;DHT22;31563;51.744;8.252;2023-06-05T08:58:39;34.10;35.40
45843;DHT22;31563;51.744;8.252;2023-06-05T09:01:09;34.50;64.40
45843;DHT22;31563;51.744;8.252;2023-06-05T09:03:38;33.60;62.40
45843;DHT22;31563;51.744;8.252;2023-06-05T09:08:34;33.60;57.90
45843;DHT22;31563;51.744;8.252;2023-06-05T09:11:24;33.80;31.30
45843;DHT22;31563;51.744;8.252;2023-06-05T09:13:55;35.30;58.80
45843;DHT22;31563;51.744;8.252;2023-06-05T09:16:33;34.80;31.40
45843;DHT22;31563;51.744;8.252;2023-06-05T09:21:31;34.60;50.30
45843;DHT22;31563;51.744;8.252;2023-06-05T09:24:16;34.30;29.70
45843;DHT22;31563;51.744;8.252;2023-06-05T09:26:54;33.60;29.90
45843;DHT22;31563;51.744;8.252;2023-06-05T09:29:24;33.90;56.20
45843;DHT22;31563;51.744;8.252;2023-06-05T09:31:54;34.30;53.40
45843;DHT22;31563;51.744;8.252;2023-06-05T09:36:50;35.00;53.00
45843;DHT22;31563;51.744;8.252;2023-06-05T09:39:21;34.70;52.40
45843;DHT22;31563;51.744;8.252;2023-06-05T09:41:53;35.30;52.10
45843;DHT22;31563;51.744;8.252;2023-06-05T09:44:22;35.50;53.70
45843;DHT22;31563;51.744;8.252;2023-06-05T09:46:56;34.40;52.40
45843;DHT22;31563;51.744;8.252;2023-06-05T09:49:27;35.90;53.50
45843;DHT22;31563;51.744;8.252;2023-06-05T09:54:25;33.90;29.90
45843;DHT22;31563;51.744;8.252;2023-06-05T09:56:57;34.70;44.30
45843;DHT22;31563;51.744;8.252;2023-06-05T09:59:28;33.40;54.10
45843;DHT22;31563;51.744;8.252;2023-06-05T10:02:01;33.70;30.60
45843;DHT22;31563;51.744;8.252;2023-06-05T10:07:01;32.50;55.60
45843;DHT22;31563;51.744;8.252;2023-06-05T10:09:30;32.60;29.80
45843;DHT22;31563;51.744;8.252;2023-06-05T10:12:02;33.30;57.70
45843;DHT22;31563;51.744;8.252;2023-06-05T10:14:31;32.00;56.30
45843;DHT22;31563;51.744;8.252;2023-06-05T10:16:59;32.70;30.70
45843;DHT22;31563;51.744;8.252;2023-06-05T10:19:30;32.00;29.80
45843;DHT22;31563;51.744;8.252;2023-06-05T10:21:58;32.10;48.00
45843;DHT22;31563;51.744;8.252;2023-06-05T10:24:29;32.50;48.30
45843;DHT22;31563;51.744;8.252;2023-06-05T10:27:23;32.60;47.30
45843;DHT22;31563;51.744;8.252;2023-06-05T10:33:03;33.40;50.30
45843;DHT22;31563;51.744;8.252;2023-06-05T10:35:45;32.60;46.00
45843;DHT22;31563;51.744;8.252;2023-06-05T10:38:17;32.50;45.30
45843;DHT22;31563;51.744;8.252;2023-06-05T10:40:46;32.30;48.10
45843;DHT22;31563;51.744;8.252;2023-06-05T10:43:28;32.90;49.90
45843;DHT22;31563;51.744;8.252;2023-06-05T10:45:58;32.90;44.40
45843;DHT22;31563;51.744;8.252;2023-06-05T10:51:37;33.10;49.30
45843;DHT22;31563;51.744;8.252;2023-06-05T10:54:08;33.50;47.00
45843;DHT22;31563;51.744;8.252;2023-06-05T10:56:58;33.40;53.20
45843;DHT22;31563;51.744;8.252;2023-06-05T10:59:29;32.90;31.50
45843;DHT22;31563;51.744;8.252;2023-06-05T11:02:23;32.40;39.60
45843;DHT22;31563;51.744;8.252;2023-06-05T11:05:05;32.80;49.40
45843;DHT22;31563;51.744;8.252;2023-06-05T11:07:34;33.00;44.50
45843;DHT22;31563;51.744;8.252;2023-06-05T11:10:15;33.50;38.50
45843;DHT22;31563;51.744;8.252;2023-06-05T11:12:57;32.90;34.60
45843;DHT22;31563;51.744;8.252;2023-06-05T11:15:40;33.20;32.60
45843;DHT22;31563;51.744;8.252;2023-06-05T11:18:32;33.30;39.00
45843;DHT22;31563;51.744;8.252;2023-06-05T11:21:01;33.20;32.90
45843;DHT22;31563;51.744;8.252;2023-06-05T11:23:29;33.20;32.90
45843;DHT22;31563;51.744;8.252;2023-06-05T11:29:11;33.20;33.00
45843;DHT22;31563;51.744;8.252;2023-06-05T11:31:43;33.20;32.90
45843;DHT22;31563;51.744;8.252;2023-06-05T11:34:12;33.20;33.00
45843;DHT22;31563;51.744;8.252;2023-06-05T11:36:41;33.20;33.00
45843;DHT22;31563;51.744;8.252;2023-06-05T11:39:10;33.30;33.10
45843;DHT22;31563;51.744;8.252;2023-06-05T11:41:46;33.20;33.20
45843;DHT22;31563;51.744;8.252;2023-06-05T11:44:15;33.50;33.50
45843;DHT22;31563;51.744;8.252;2023-06-05T11:46:45;34.20;37.30
45843;DHT22;31563;51.744;8.252;2023-06-05T11:49:26;33.90;33.10
45843;DHT22;31563;51.744;8.252;2023-06-05T11:51:55;34.40;41.30
45843;DHT22;31563;51.744;8.252;2023-06-05T11:54:25;34.40;36.60
45843;DHT22;31563;51.744;8.252;2023-06-05T11:57:00;34.40;32.70
45843;DHT22;31563;51.744;8.252;2023-06-05T11:59:35;34.30;35.50
45843;DHT22;31563;51.744;8.252;2023-06-05T12:02:05;34.70;37.20
45843;DHT22;31563;51.744;8.252;2023-06-05T12:04:34;34.80;32.40
45843;DHT22;31563;51.744;8.252;2023-06-05T12:07:03;35.40;37.80
45843;DHT22;31563;51.744;8.252;2023-06-05T12:09:31;34.40;36.10
45843;DHT22;31563;51.744;8.252;2023-06-05T12:12:07;34.90;36.80
45843;DHT22;31563;51.744;8.252;2023-06-05T12:14:36;35.10;32.80
45843;DHT22;31563;51.744;8.252;2023-06-05T12:17:12;35.30;32.10
45843;DHT22;31563;51.744;8.252;2023-06-05T12:19:40;35.30;37.10
45843;DHT22;31563;51.744;8.252;2023-06-05T12:22:08;35.40;31.90
45843;DHT22;31563;51.744;8.252;2023-06-05T12:24:37;35.50;31.80
45843;DHT22;31563;51.744;8.252;2023-06-05T12:27:05;35.50;31.70
45843;DHT22;31563;51.744;8.252;2023-06-05T12:29:36;36.10;34.40
45843;DHT22;31563;51.744;8.252;2023-06-05T12:32:21;35.60;31.70
45843;DHT22;31563;51.744;8.252;2023-06-05T12:34:51;35.80;31.70
45843;DHT22;31563;51.744;8.252;2023-06-05T12:37:32;35.90;31.70
45843;DHT22;31563;51.744;8.252;2023-06-05T12:40:05;35.90;31.60
45843;DHT22;31563;51.744;8.252;2023-06-05T12:42:37;36.00;31.50
45843;DHT22;31563;51.744;8.252;2023-06-05T12:45:08;36.10;31.50
45843;DHT22;31563;51.744;8.252;2023-06-05T12:47:41;36.20;31.50
45843;DHT22;31563;51.744;8.252;2023-06-05T12:50:11;36.20;31.40
45843;DHT22;31563;51.744;8.252;2023-06-05T12:52:40;36.30;31.40
45843;DHT22;31563;51.744;8.252;2023-06-05T12:55:09;36.40;31.40
45843;DHT22;31563;51.744;8.252;2023-06-05T12:57:37;36.50;31.30
45843;DHT22;31563;51.744;8.252;2023-06-05T13:00:07;36.50;31.30
45843;DHT22;31563;51.744;8.252;2023-06-05T13:02:43;36.60;31.30
45843;DHT22;31563;51.744;8.252;2023-06-05T13:05:13;36.70;31.30
45843;DHT22;31563;51.744;8.252;2023-06-05T13:07:41;36.80;31.20
45843;DHT22;31563;51.744;8.252;2023-06-05T13:10:09;36.80;31.10
45843;DHT22;31563;51.744;8.252;2023-06-05T13:12:38;36.80;29.60
45843;DHT22;31563;51.744;8.252;2023-06-05T13:15:07;36.40;29.40
45843;DHT22;31563;51.744;8.252;2023-06-05T13:17:36;36.00;29.60
45843;DHT22;31563;51.744;8.252;2023-06-05T13:20:07;36.10;30.00
45843;DHT22;31563;51.744;8.252;2023-06-05T13:22:38;36.30;30.00
45843;DHT22;31563;51.744;8.252;2023-06-05T13:25:07;36.50;29.90
45843;DHT22;31563;51.744;8.252;2023-06-05T13:27:36;36.60;30.00
45843;DHT22;31563;51.744;8.252;2023-06-05T13:30:06;36.80;29.90
45843;DHT22;31563;51.744;8.252;2023-06-05T13:32:34;36.90;29.90
45843;DHT22;31563;51.744;8.252;2023-06-05T13:35:07;37.10;29.80
45843;DHT22;31563;51.744;8.252;2023-06-05T13:37:36;37.20;30.20
45843;DHT22;31563;51.744;8.252;2023-06-05T13:40:05;37.20;29.30
45843;DHT22;31563;51.744;8.252;2023-06-05T13:42:37;37.10;28.90
45843;DHT22;31563;51.744;8.252;2023-06-05T13:45:06;36.90;29.00
45843;DHT22;31563;51.744;8.252;2023-06-05T13:47:34;36.80;28.90
45843;DHT22;31563;51.744;8.252;2023-06-05T13:50:03;36.70;29.00
45843;DHT22;31563;51.744;8.252;2023-06-05T13:52:33;36.70;29.10
45843;DHT22;31563;51.744;8.252;2023-06-05T13:55:01;36.70;29.20
45843;DHT22;31563;51.744;8.252;2023-06-05T13:57:30;36.60;28.80
45843;DHT22;31563;51.744;8.252;2023-06-05T13:59:58;36.70;29.10
45843;DHT22;31563;51.744;8.252;2023-06-05T14:02:26;36.60;28.80
45843;DHT22;31563;51.744;8.252;2023-06-05T14:04:54;36.70;29.10
45843;DHT22;31563;51.744;8.252;2023-06-05T14:07:22;36.90;29.20
45843;DHT22;31563;51.744;8.252;2023-06-05T14:10:01;37.10;29.10
45843;DHT22;31563;51.744;8.252;2023-06-05T14:12:31;37.20;29.10
45843;DHT22;31563;51.744;8.252;2023-06-05T14:14:59;37.40;29.10
45843;DHT22;31563;51.744;8.252;2023-06-05T14:17:27;37.50;29.10
45843;DHT22;31563;51.744;8.252;2023-06-05T14:19:55;37.60;29.10
45843;DHT22;31563;51.744;8.252;2023-06-05T14:22:23;37.70;29.10
45843;DHT22;31563;51.744;8.252;2023-06-05T14:24:51;37.70;29.10
45843;DHT22;31563;51.744;8.252;2023-06-05T14:27:21;37.80;29.10
45843;DHT22;31563;51.744;8.252;2023-06-05T14:29:49;37.90;29.60
45843;DHT22;31563;51.744;8.252;2023-06-05T14:32:17;37.90;29.10
45843;DHT22;31563;51.744;8.252;2023-06-05T14:34:46;38.00;29.10
45843;DHT22;31563;51.744;8.252;2023-06-05T14:37:14;38.10;29.10
45843;DHT22;31563;51.744;8.252;2023-06-05T14:39:42;38.20;29.10
45843;DHT22;31563;51.744;8.252;2023-06-05T14:42:11;38.20;29.10
45843;DHT22;31563;51.744;8.252;2023-06-05T14:44:40;38.30;29.10
45843;DHT22;31563;51.744;8.252;2023-06-05T14:47:08;38.40;29.20
45843;DHT22;31563;51.744;8.252;2023-06-05T14:49:36;38.40;29.10
45843;DHT22;31563;51.744;8.252;2023-06-05T14:52:05;38.50;29.20
45843;DHT22;31563;51.744;8.252;2023-06-05T14:54:33;38.50;29.10
45843;DHT22;31563;51.744;8.252;2023-06-05T14:57:01;38.60;29.10
45843;DHT22;31563;51.744;8.252;2023-06-05T14:59:29;38.60;29.10
45843;DHT22;31563;51.744;8.252;2023-06-05T15:01:59;38.70;29.10
45843;DHT22;31563;51.744;8.252;2023-06-05T15:04:27;38.70;29.10
45843;DHT22;31563;51.744;8.252;2023-06-05T15:06:56;38.70;29.10
45843;DHT22;31563;51.744;8.252;2023-06-05T15:09:24;38.80;29.20
45843;DHT22;31563;51.744;8.252;2023-06-05T15:11:52;38.80;29.20
45843;DHT22;31563;51.744;8.252;2023-06-05T15:14:22;38.80;29.20
45843;DHT22;31563;51.744;8.252;2023-06-05T15:16:51;38.70;28.40
45843;DHT22;31563;51.744;8.252;2023-06-05T15:19:21;38.40;28.20
45843;DHT22;31563;51.744;8.252;2023-06-05T15:21:49;38.10;28.20
45843;DHT22;31563;51.744;8.252;2023-06-05T15:24:17;37.90;28.10
45843;DHT22;31563;51.744;8.252;2023-06-05T15:26:45;37.70;28.10
45843;DHT22;31563;51.744;8.252;2023-06-05T15:29:14;37.50;28.20
45843;DHT22;31563;51.744;8.252;2023-06-05T15:31:42;37.30;28.10
45843;DHT22;31563;51.744;8.252;2023-06-05T15:34:12;37.20;28.50
45843;DHT22;31563;51.744;8.252;2023-06-05T15:36:41;37.00;28.30
45843;DHT22;31563;51.744;8.252;2023-06-05T15:39:09;36.90;28.40
45843;DHT22;31563;51.744;8.252;2023-06-05T15:41:39;36.80;28.20
45843;DHT22;31563;51.744;8.252;2023-06-05T15:44:11;36.70;28.30
45843;DHT22;31563;51.744;8.252;2023-06-05T15:46:39;36.50;28.30
45843;DHT22;31563;51.744;8.252;2023-06-05T15:49:07;36.40;28.30
45843;DHT22;31563;51.744;8.252;2023-06-05T15:51:35;36.30;28.30
45843;DHT22;31563;51.744;8.252;2023-06-05T15:54:05;36.20;28.30
45843;DHT22;31563;51.744;8.252;2023-06-05T15:56:40;36.20;28.30
45843;DHT22;31563;51.744;8.252;2023-06-05T15:59:08;36.10;28.30
45843;DHT22;31563;51.744;8.252;2023-06-05T16:01:37;36.10;28.30
45843;DHT22;31563;51.744;8.252;2023-06-05T16:04:05;36.00;28.30
45843;DHT22;31563;51.744;8.252;2023-06-05T16:06:33;35.90;28.30
45843;DHT22;31563;51.744;8.252;2023-06-05T16:09:01;35.90;28.30
45843;DHT22;31563;51.744;8.252;2023-06-05T16:11:31;35.80;28.40
45843;DHT22;31563;51.744;8.252;2023-06-05T16:13:59;35.80;28.40
45843;DHT22;31563;51.744;8.252;2023-06-05T16:16:28;35.80;28.50
45843;DHT22;31563;51.744;8.252;2023-06-05T16:18:56;35.70;28.40
45843;DHT22;31563;51.744;8.252;2023-06-05T16:21:26;35.60;28.40
45843;DHT22;31563;51.744;8.252;2023-06-05T16:23:54;35.50;28.50
45843;DHT22;31563;51.744;8.252;2023-06-05T16:26:23;35.40;28.60
45843;DHT22;31563;51.744;8.252;2023-06-05T16:28:53;35.30;28.60
45843;DHT22;31563;51.744;8.252;2023-06-05T16:31:21;35.20;28.70
45843;DHT22;31563;51.744;8.252;2023-06-05T16:33:49;35.20;28.80
45843;DHT22;31563;51.744;8.252;2023-06-05T16:36:18;35.00;28.90
45843;DHT22;31563;51.744;8.252;2023-06-05T16:38:46;35.00;29.00
45843;DHT22;31563;51.744;8.252;2023-06-05T16:43:42;35.00;36.50
45843;DHT22;31563;51.744;8.252;2023-06-05T16:46:12;34.20;33.90
45843;DHT22;31563;51.744;8.252;2023-06-05T16:48:41;35.00;35.90
45843;DHT22;31563;51.744;8.252;2023-06-05T16:51:09;35.20;28.90
45843;DHT22;31563;51.744;8.252;2023-06-05T16:53:37;34.90;34.60
45843;DHT22;31563;51.744;8.252;2023-06-05T16:56:05;34.70;35.20
45843;DHT22;31563;51.744;8.252;2023-06-05T16:58:34;34.90;31.60
45843;DHT22;31563;51.744;8.252;2023-06-05T17:01:02;34.60;34.00
45843;DHT22;31563;51.744;8.252;2023-06-05T17:03:32;35.40;29.30
45843;DHT22;31563;51.744;8.252;2023-06-05T17:06:03;35.30;32.20
45843;DHT22;31563;51.744;8.252;2023-06-05T17:08:32;35.50;29.30
45843;DHT22;31563;51.744;8.252;2023-06-05T17:11:01;35.60;33.60